sensor_id;sensor_type;location;lat;lon;timestamp;temperature;humidity
26952;DHT22;14507;52.418;13.398;2023-05-10T00:00:12;12.40;92.20
26952;DHT22;14507;52.418;13.398;2023-05-10T00:02:37;12.30;92.30
26952;DHT22;14507;52.418;13.398;2023-05-10T00:05:04;12.30;92.40
26952;DHT22;14507;52.418;13.398;2023-05-10T00:07:30;12.30;92.50
26952;DHT22;14507;52.418;13.398;2023-05-10T00:09:56;12.30;92.60
26952;DHT22;14507;52.418;13.398;2023-05-10T00:12:21;12.20;92.60
26952;DHT22;14507;52.418;13.398;2023-05-10T00:14:47;12.20;92.80
26952;DHT22;14507;52.418;13.398;2023-05-10T00:17:13;12.20;92.90
26952;DHT22;14507;52.418;13.398;2023-05-10T00:19:38;12.10;93.20
26952;DHT22;14507;52.418;13.398;2023-05-10T00:22:04;12.10;93.00
26952;DHT22;14507;52.418;13.398;2023-05-10T00:24:30;12.10;93.20
26952;DHT22;14507;52.418;13.398;2023-05-10T00:26:55;12.10;93.20
26952;DHT22;14507;52.418;13.398;2023-05-10T00:29:21;12.10;93.40
26952;DHT22;14507;52.418;13.398;2023-05-10T00:31:47;12.10;93.40
26952;DHT22;14507;52.418;13.398;2023-05-10T00:34:12;12.10;93.40
26952;DHT22;14507;52.418;13.398;2023-05-10T00:36:38;12.00;93.40
26952;DHT22;14507;52.418;13.398;2023-05-10T00:39:03;12.00;93.70
26952;DHT22;14507;52.418;13.398;2023-05-10T00:41:30;11.90;93.80
26952;DHT22;14507;52.418;13.398;2023-05-10T00:43:58;12.00;93.60
26952;DHT22;14507;52.418;13.398;2023-05-10T00:46:24;12.00;93.70
26952;DHT22;14507;52.418;13.398;2023-05-10T00:48:51;12.00;93.70
26952;DHT22;14507;52.418;13.398;2023-05-10T00:51:17;12.00;93.80
26952;DHT22;14507;52.418;13.398;2023-05-10T00:53:45;12.00;93.70
26952;DHT22;14507;52.418;13.398;2023-05-10T00:56:11;12.00;93.70
26952;DHT22;14507;52.418;13.398;2023-05-10T00:58:38;12.00;93.90
26952;DHT22;14507;52.418;13.398;2023-05-10T01:01:04;11.90;93.90
26952;DHT22;14507;52.418;13.398;2023-05-10T01:03:31;11.90;93.80
26952;DHT22;14507;52.418;13.398;2023-05-10T01:05:57;11.90;94.00
26952;DHT22;14507;52.418;13.398;2023-05-10T01:08:23;11.90;94.10
26952;DHT22;14507;52.418;13.398;2023-05-10T01:10:49;12.00;93.90
26952;DHT22;14507;52.418;13.398;2023-05-10T01:13:36;11.90;93.90
26952;DHT22;14507;52.418;13.398;2023-05-10T01:16:03;11.90;94.10
26952;DHT22;14507;52.418;13.398;2023-05-10T01:18:37;11.90;94.00
26952;DHT22;14507;52.418;13.398;2023-05-10T01:34:53;11.70;94.40
26952;DHT22;14507;52.418;13.398;2023-05-10T01:37:23;11.70;94.40
26952;DHT22;14507;52.418;13.398;2023-05-10T01:39:58;11.70;94.70
26952;DHT22;14507;52.418;13.398;2023-05-10T01:42:28;11.70;94.80
26952;DHT22;14507;52.418;13.398;2023-05-10T01:47:38;11.60;95.10
26952;DHT22;14507;52.418;13.398;2023-05-10T01:50:10;11.50;95.20
26952;DHT22;14507;52.418;13.398;2023-05-10T01:52:56;11.60;95.40
26952;DHT22;14507;52.418;13.398;2023-05-10T01:55:27;11.50;95.40
26952;DHT22;14507;52.418;13.398;2023-05-10T01:58:09;11.50;95.60
26952;DHT22;14507;52.418;13.398;2023-05-10T02:00:35;11.50;95.60
26952;DHT22;14507;52.418;13.398;2023-05-10T02:03:06;11.50;95.70
26952;DHT22;14507;52.418;13.398;2023-05-10T02:05:33;11.50;95.90
26952;DHT22;14507;52.418;13.398;2023-05-10T02:08:01;11.40;96.00
26952;DHT22;14507;52.418;13.398;2023-05-10T02:10:28;11.40;96.00
26952;DHT22;14507;52.418;13.398;2023-05-10T02:12:54;11.30;96.10
26952;DHT22;14507;52.418;13.398;2023-05-10T02:15:24;11.30;96.20
26952;DHT22;14507;52.418;13.398;2023-05-10T02:17:52;11.30;96.60
26952;DHT22;14507;52.418;13.398;2023-05-10T02:20:20;11.30;96.60
26952;DHT22;14507;52.418;13.398;2023-05-10T02:22:49;11.30;96.50
26952;DHT22;14507;52.418;13.398;2023-05-10T02:25:16;11.20;96.60
26952;DHT22;14507;52.418;13.398;2023-05-10T02:27:44;11.20;96.80
26952;DHT22;14507;52.418;13.398;2023-05-10T02:30:11;11.10;96.90
26952;DHT22;14507;52.418;13.398;2023-05-10T02:32:38;11.10;97.10
26952;DHT22;14507;52.418;13.398;2023-05-10T02:35:05;11.10;97.40
26952;DHT22;14507;52.418;13.398;2023-05-10T02:37:31;11.00;97.40
26952;DHT22;14507;52.418;13.398;2023-05-10T02:39:58;11.00;97.50
26952;DHT22;14507;52.418;13.398;2023-05-10T02:42:29;11.00;97.60
26952;DHT22;14507;52.418;13.398;2023-05-10T02:45:01;11.00;97.80
26952;DHT22;14507;52.418;13.398;2023-05-10T02:47:28;10.90;97.80
26952;DHT22;14507;52.418;13.398;2023-05-10T02:49:54;10.90;98.00
26952;DHT22;14507;52.418;13.398;2023-05-10T02:52:27;10.90;98.00
26952;DHT22;14507;52.418;13.398;2023-05-10T02:54:56;10.90;98.30
26952;DHT22;14507;52.418;13.398;2023-05-10T02:57:27;10.80;98.40
26952;DHT22;14507;52.418;13.398;2023-05-10T02:59:54;10.80;98.40
26952;DHT22;14507;52.418;13.398;2023-05-10T03:02:20;10.80;98.50
26952;DHT22;14507;52.418;13.398;2023-05-10T03:04:46;10.70;98.60
26952;DHT22;14507;52.418;13.398;2023-05-10T03:07:13;10.70;98.90
26952;DHT22;14507;52.418;13.398;2023-05-10T03:09:39;10.70;98.80
26952;DHT22;14507;52.418;13.398;2023-05-10T03:12:26;10.60;98.80
26952;DHT22;14507;52.418;13.398;2023-05-10T03:17:52;10.60;99.20
26952;DHT22;14507;52.418;13.398;2023-05-10T03:20:29;10.60;99.20
26952;DHT22;14507;52.418;13.398;2023-05-10T03:23:04;10.50;99.30
26952;DHT22;14507;52.418;13.398;2023-05-10T03:25:33;10.60;99.10
26952;DHT22;14507;52.418;13.398;2023-05-10T03:28:01;10.60;99.10
26952;DHT22;14507;52.418;13.398;2023-05-10T03:30:27;10.50;99.20
26952;DHT22;14507;52.418;13.398;2023-05-10T03:32:53;10.50;99.30
26952;DHT22;14507;52.418;13.398;2023-05-10T03:35:19;10.50;99.20
26952;DHT22;14507;52.418;13.398;2023-05-10T03:37:45;10.50;99.20
26952;DHT22;14507;52.418;13.398;2023-05-10T03:40:11;10.50;99.20
26952;DHT22;14507;52.418;13.398;2023-05-10T03:42:37;10.50;99.30
26952;DHT22;14507;52.418;13.398;2023-05-10T03:45:02;10.50;99.70
26952;DHT22;14507;52.418;13.398;2023-05-10T03:47:28;10.50;99.60
26952;DHT22;14507;52.418;13.398;2023-05-10T03:49:55;10.50;99.50
26952;DHT22;14507;52.418;13.398;2023-05-10T03:52:20;10.50;99.60
26952;DHT22;14507;52.418;13.398;2023-05-10T03:54:46;10.50;99.60
26952;DHT22;14507;52.418;13.398;2023-05-10T03:57:12;10.50;99.50
26952;DHT22;14507;52.418;13.398;2023-05-10T03:59:37;10.50;99.70
26952;DHT22;14507;52.418;13.398;2023-05-10T04:02:03;10.50;99.70
26952;DHT22;14507;52.418;13.398;2023-05-10T04:04:29;10.50;99.90
26952;DHT22;14507;52.418;13.398;2023-05-10T04:06:54;10.50;99.90
26952;DHT22;14507;52.418;13.398;2023-05-10T04:09:20;10.50;99.90
26952;DHT22;14507;52.418;13.398;2023-05-10T04:11:46;10.40;99.90
26952;DHT22;14507;52.418;13.398;2023-05-10T04:14:11;10.50;99.90
26952;DHT22;14507;52.418;13.398;2023-05-10T04:16:37;10.50;99.90
26952;DHT22;14507;52.418;13.398;2023-05-10T04:19:03;10.50;99.90
26952;DHT22;14507;52.418;13.398;2023-05-10T04:21:29;10.60;99.70
26952;DHT22;14507;52.418;13.398;2023-05-10T04:23:54;10.60;99.60
26952;DHT22;14507;52.418;13.398;2023-05-10T04:26:20;10.70;99.50
26952;DHT22;14507;52.418;13.398;2023-05-10T04:28:47;10.80;99.20
26952;DHT22;14507;52.418;13.398;2023-05-10T04:31:13;10.90;98.90
26952;DHT22;14507;52.418;13.398;2023-05-10T04:33:38;11.10;98.60
26952;DHT22;14507;52.418;13.398;2023-05-10T04:36:04;11.20;98.70
26952;DHT22;14507;52.418;13.398;2023-05-10T04:38:30;11.40;98.30
26952;DHT22;14507;52.418;13.398;2023-05-10T04:41:06;11.60;97.60
26952;DHT22;14507;52.418;13.398;2023-05-10T04:43:32;12.00;97.10
26952;DHT22;14507;52.418;13.398;2023-05-10T04:45:58;12.30;96.20
26952;DHT22;14507;52.418;13.398;2023-05-10T04:48:24;12.60;95.60
26952;DHT22;14507;52.418;13.398;2023-05-10T04:50:50;12.80;95.20
26952;DHT22;14507;52.418;13.398;2023-05-10T04:53:15;13.00;94.90
26952;DHT22;14507;52.418;13.398;2023-05-10T04:55:41;13.20;94.20
26952;DHT22;14507;52.418;13.398;2023-05-10T04:58:07;13.40;93.80
26952;DHT22;14507;52.418;13.398;2023-05-10T05:00:33;13.50;93.60
26952;DHT22;14507;52.418;13.398;2023-05-10T05:02:59;13.80;93.20
26952;DHT22;14507;52.418;13.398;2023-05-10T05:05:24;14.00;92.80
26952;DHT22;14507;52.418;13.398;2023-05-10T05:07:50;14.30;92.80
26952;DHT22;14507;52.418;13.398;2023-05-10T05:10:16;14.60;92.00
26952;DHT22;14507;52.418;13.398;2023-05-10T05:12:42;14.70;91.70
26952;DHT22;14507;52.418;13.398;2023-05-10T05:15:07;14.90;91.80
26952;DHT22;14507;52.418;13.398;2023-05-10T05:17:35;15.10;91.40
26952;DHT22;14507;52.418;13.398;2023-05-10T05:20:00;15.40;91.00
26952;DHT22;14507;52.418;13.398;2023-05-10T05:22:26;15.60;90.60
26952;DHT22;14507;52.418;13.398;2023-05-10T05:24:56;15.80;89.60
26952;DHT22;14507;52.418;13.398;2023-05-10T05:27:22;15.90;89.20
26952;DHT22;14507;52.418;13.398;2023-05-10T05:29:50;16.00;89.80
26952;DHT22;14507;52.418;13.398;2023-05-10T05:32:16;16.30;89.00
26952;DHT22;14507;52.418;13.398;2023-05-10T05:34:43;16.60;86.80
26952;DHT22;14507;52.418;13.398;2023-05-10T05:37:16;16.50;87.80
26952;DHT22;14507;52.418;13.398;2023-05-10T05:39:42;16.80;87.60
26952;DHT22;14507;52.418;13.398;2023-05-10T05:42:09;17.00;85.60
26952;DHT22;14507;52.418;13.398;2023-05-10T05:44:35;17.00;85.70
26952;DHT22;14507;52.418;13.398;2023-05-10T05:47:00;17.20;85.10
26952;DHT22;14507;52.418;13.398;2023-05-10T05:49:26;17.40;85.90
26952;DHT22;14507;52.418;13.398;2023-05-10T05:51:52;17.80;83.50
26952;DHT22;14507;52.418;13.398;2023-05-10T05:54:17;17.90;83.70
26952;DHT22;14507;52.418;13.398;2023-05-10T05:56:43;17.90;82.40
26952;DHT22;14507;52.418;13.398;2023-05-10T05:59:10;17.90;83.30
26952;DHT22;14507;52.418;13.398;2023-05-10T06:01:35;18.20;82.40
26952;DHT22;14507;52.418;13.398;2023-05-10T06:04:01;18.10;83.00
26952;DHT22;14507;52.418;13.398;2023-05-10T06:06:27;18.00;81.60
26952;DHT22;14507;52.418;13.398;2023-05-10T06:08:53;18.20;81.30
26952;DHT22;14507;52.418;13.398;2023-05-10T06:11:19;18.30;80.40
26952;DHT22;14507;52.418;13.398;2023-05-10T06:13:46;18.50;80.80
26952;DHT22;14507;52.418;13.398;2023-05-10T06:16:12;18.70;79.30
26952;DHT22;14507;52.418;13.398;2023-05-10T06:18:39;18.80;79.10
26952;DHT22;14507;52.418;13.398;2023-05-10T06:21:04;19.00;78.50
26952;DHT22;14507;52.418;13.398;2023-05-10T06:23:30;19.10;78.20
26952;DHT22;14507;52.418;13.398;2023-05-10T06:25:56;19.10;77.80
26952;DHT22;14507;52.418;13.398;2023-05-10T06:28:21;19.10;78.10
26952;DHT22;14507;52.418;13.398;2023-05-10T06:30:47;19.10;78.50
26952;DHT22;14507;52.418;13.398;2023-05-10T06:33:13;19.20;78.30
26952;DHT22;14507;52.418;13.398;2023-05-10T06:35:39;19.80;77.00
26952;DHT22;14507;52.418;13.398;2023-05-10T06:38:05;20.20;76.60
26952;DHT22;14507;52.418;13.398;2023-05-10T06:40:31;20.50;73.90
26952;DHT22;14507;52.418;13.398;2023-05-10T06:42:58;20.00;74.70
26952;DHT22;14507;52.418;13.398;2023-05-10T06:45:23;20.00;75.10
26952;DHT22;14507;52.418;13.398;2023-05-10T06:47:49;20.10;74.80
26952;DHT22;14507;52.418;13.398;2023-05-10T06:50:14;20.00;74.50
26952;DHT22;14507;52.418;13.398;2023-05-10T06:52:40;19.90;75.10
26952;DHT22;14507;52.418;13.398;2023-05-10T06:55:06;20.00;75.50
26952;DHT22;14507;52.418;13.398;2023-05-10T06:57:32;20.10;74.50
26952;DHT22;14507;52.418;13.398;2023-05-10T06:59:58;20.50;74.40
26952;DHT22;14507;52.418;13.398;2023-05-10T07:02:24;20.80;72.30
26952;DHT22;14507;52.418;13.398;2023-05-10T07:04:50;20.80;72.80
26952;DHT22;14507;52.418;13.398;2023-05-10T07:07:17;20.70;72.80
26952;DHT22;14507;52.418;13.398;2023-05-10T07:09:43;20.60;72.90
26952;DHT22;14507;52.418;13.398;2023-05-10T07:12:08;20.40;73.10
26952;DHT22;14507;52.418;13.398;2023-05-10T07:14:34;20.60;75.50
26952;DHT22;14507;52.418;13.398;2023-05-10T07:16:59;21.10;74.40
26952;DHT22;14507;52.418;13.398;2023-05-10T07:19:25;21.40;72.30
26952;DHT22;14507;52.418;13.398;2023-05-10T07:21:51;21.60;71.20
26952;DHT22;14507;52.418;13.398;2023-05-10T07:24:16;21.60;70.30
26952;DHT22;14507;52.418;13.398;2023-05-10T07:26:42;21.70;71.50
26952;DHT22;14507;52.418;13.398;2023-05-10T07:29:08;22.10;69.40
26952;DHT22;14507;52.418;13.398;2023-05-10T07:31:33;22.20;69.00
26952;DHT22;14507;52.418;13.398;2023-05-10T07:33:59;22.50;69.10
26952;DHT22;14507;52.418;13.398;2023-05-10T07:36:25;22.70;69.10
26952;DHT22;14507;52.418;13.398;2023-05-10T07:38:50;23.20;68.00
26952;DHT22;14507;52.418;13.398;2023-05-10T07:41:16;23.50;67.70
26952;DHT22;14507;52.418;13.398;2023-05-10T07:43:42;23.50;66.20
26952;DHT22;14507;52.418;13.398;2023-05-10T07:46:07;23.30;67.60
26952;DHT22;14507;52.418;13.398;2023-05-10T07:48:36;23.60;66.30
26952;DHT22;14507;52.418;13.398;2023-05-10T07:51:01;23.20;65.70
26952;DHT22;14507;52.418;13.398;2023-05-10T07:53:27;22.80;67.80
26952;DHT22;14507;52.418;13.398;2023-05-10T07:55:59;23.00;66.10
26952;DHT22;14507;52.418;13.398;2023-05-10T07:58:44;22.40;67.20
26952;DHT22;14507;52.418;13.398;2023-05-10T08:01:10;22.40;67.20
26952;DHT22;14507;52.418;13.398;2023-05-10T08:03:35;22.30;69.10
26952;DHT22;14507;52.418;13.398;2023-05-10T08:06:01;22.80;69.50
26952;DHT22;14507;52.418;13.398;2023-05-10T08:08:26;23.20;67.80
26952;DHT22;14507;52.418;13.398;2023-05-10T08:10:52;23.50;66.40
26952;DHT22;14507;52.418;13.398;2023-05-10T08:13:17;23.90;65.90
26952;DHT22;14507;52.418;13.398;2023-05-10T08:15:43;24.40;66.80
26952;DHT22;14507;52.418;13.398;2023-05-10T08:18:09;24.80;64.20
26952;DHT22;14507;52.418;13.398;2023-05-10T08:20:34;24.70;63.70
26952;DHT22;14507;52.418;13.398;2023-05-10T08:23:00;24.40;64.00
26952;DHT22;14507;52.418;13.398;2023-05-10T08:25:26;24.40;63.40
26952;DHT22;14507;52.418;13.398;2023-05-10T08:27:51;24.10;63.60
26952;DHT22;14507;52.418;13.398;2023-05-10T08:30:17;23.80;65.20
26952;DHT22;14507;52.418;13.398;2023-05-10T08:32:42;23.60;66.00
26952;DHT22;14507;52.418;13.398;2023-05-10T08:35:08;23.50;65.70
26952;DHT22;14507;52.418;13.398;2023-05-10T08:37:34;23.70;66.00
26952;DHT22;14507;52.418;13.398;2023-05-10T08:39:59;23.60;65.50
26952;DHT22;14507;52.418;13.398;2023-05-10T08:42:26;23.30;65.10
26952;DHT22;14507;52.418;13.398;2023-05-10T08:44:54;23.10;66.40
26952;DHT22;14507;52.418;13.398;2023-05-10T08:47:20;23.30;66.50
26952;DHT22;14507;52.418;13.398;2023-05-10T08:49:47;23.40;66.30
26952;DHT22;14507;52.418;13.398;2023-05-10T08:52:17;23.70;66.20
26952;DHT22;14507;52.418;13.398;2023-05-10T08:54:43;23.90;65.70
26952;DHT22;14507;52.418;13.398;2023-05-10T08:57:10;24.10;65.60
26952;DHT22;14507;52.418;13.398;2023-05-10T08:59:36;24.00;65.90
26952;DHT22;14507;52.418;13.398;2023-05-10T09:02:05;23.80;66.40
26952;DHT22;14507;52.418;13.398;2023-05-10T09:04:31;24.00;65.90
26952;DHT22;14507;52.418;13.398;2023-05-10T09:06:57;23.90;64.20
26952;DHT22;14507;52.418;13.398;2023-05-10T09:09:24;23.60;64.90
26952;DHT22;14507;52.418;13.398;2023-05-10T09:11:51;23.50;66.60
26952;DHT22;14507;52.418;13.398;2023-05-10T09:14:18;23.60;65.10
26952;DHT22;14507;52.418;13.398;2023-05-10T09:16:45;23.70;66.30
26952;DHT22;14507;52.418;13.398;2023-05-10T09:19:10;24.00;66.20
26952;DHT22;14507;52.418;13.398;2023-05-10T09:21:37;24.10;65.30
26952;DHT22;14507;52.418;13.398;2023-05-10T09:24:08;23.90;64.70
26952;DHT22;14507;52.418;13.398;2023-05-10T09:26:34;23.90;65.20
26952;DHT22;14507;52.418;13.398;2023-05-10T09:29:01;24.00;67.10
26952;DHT22;14507;52.418;13.398;2023-05-10T09:34:09;24.00;65.00
26952;DHT22;14507;52.418;13.398;2023-05-10T09:36:34;23.90;66.50
26952;DHT22;14507;52.418;13.398;2023-05-10T09:39:00;23.90;65.00
26952;DHT22;14507;52.418;13.398;2023-05-10T09:41:25;24.00;66.60
26952;DHT22;14507;52.418;13.398;2023-05-10T09:43:56;24.10;65.50
26952;DHT22;14507;52.418;13.398;2023-05-10T09:46:22;24.10;65.30
26952;DHT22;14507;52.418;13.398;2023-05-10T09:48:48;24.30;66.50
26952;DHT22;14507;52.418;13.398;2023-05-10T09:53:46;24.30;64.30
26952;DHT22;14507;52.418;13.398;2023-05-10T09:56:11;24.40;63.90
26952;DHT22;14507;52.418;13.398;2023-05-10T09:58:37;24.20;63.60
26952;DHT22;14507;52.418;13.398;2023-05-10T10:01:11;24.20;65.10
26952;DHT22;14507;52.418;13.398;2023-05-10T10:03:41;24.20;64.30
26952;DHT22;14507;52.418;13.398;2023-05-10T10:06:07;24.10;64.40
26952;DHT22;14507;52.418;13.398;2023-05-10T10:08:34;23.90;67.00
26952;DHT22;14507;52.418;13.398;2023-05-10T10:11:00;23.90;64.40
26952;DHT22;14507;52.418;13.398;2023-05-10T10:13:26;23.90;64.10
26952;DHT22;14507;52.418;13.398;2023-05-10T10:15:53;23.70;64.10
26952;DHT22;14507;52.418;13.398;2023-05-10T10:18:19;23.40;64.70
26952;DHT22;14507;52.418;13.398;2023-05-10T10:20:49;23.40;66.20
26952;DHT22;14507;52.418;13.398;2023-05-10T10:23:15;23.40;66.60
26952;DHT22;14507;52.418;13.398;2023-05-10T10:25:41;23.50;64.90
26952;DHT22;14507;52.418;13.398;2023-05-10T10:28:39;23.40;64.30
26952;DHT22;14507;52.418;13.398;2023-05-10T10:31:13;22.90;65.70
26952;DHT22;14507;52.418;13.398;2023-05-10T10:34:00;22.60;65.90
26952;DHT22;14507;52.418;13.398;2023-05-10T10:36:27;22.50;66.20
26952;DHT22;14507;52.418;13.398;2023-05-10T10:39:00;22.40;68.90
26952;DHT22;14507;52.418;13.398;2023-05-10T10:41:34;22.60;65.80
26952;DHT22;14507;52.418;13.398;2023-05-10T10:52:15;22.40;68.80
26952;DHT22;14507;52.418;13.398;2023-05-10T10:55:18;22.70;67.30
26952;DHT22;14507;52.418;13.398;2023-05-10T10:57:52;22.80;67.20
26952;DHT22;14507;52.418;13.398;2023-05-10T11:05:38;22.90;65.80
26952;DHT22;14507;52.418;13.398;2023-05-10T11:10:48;22.90;66.30
26952;DHT22;14507;52.418;13.398;2023-05-10T11:13:14;22.80;69.40
26952;DHT22;14507;52.418;13.398;2023-05-10T11:15:48;22.90;66.50
26952;DHT22;14507;52.418;13.398;2023-05-10T11:18:23;22.90;66.70
26952;DHT22;14507;52.418;13.398;2023-05-10T11:21:02;22.80;65.50
26952;DHT22;14507;52.418;13.398;2023-05-10T11:23:54;22.80;66.10
26952;DHT22;14507;52.418;13.398;2023-05-10T11:26:25;22.90;66.00
26952;DHT22;14507;52.418;13.398;2023-05-10T11:28:53;22.80;64.60
26952;DHT22;14507;52.418;13.398;2023-05-10T11:31:20;22.60;65.60
26952;DHT22;14507;52.418;13.398;2023-05-10T11:33:54;22.50;66.80
26952;DHT22;14507;52.418;13.398;2023-05-10T11:36:28;22.60;67.00
26952;DHT22;14507;52.418;13.398;2023-05-10T11:38:55;22.80;65.70
26952;DHT22;14507;52.418;13.398;2023-05-10T11:41:22;22.90;66.80
26952;DHT22;14507;52.418;13.398;2023-05-10T11:43:51;22.80;67.70
26952;DHT22;14507;52.418;13.398;2023-05-10T11:46:19;22.80;65.70
26952;DHT22;14507;52.418;13.398;2023-05-10T11:48:47;22.60;66.00
26952;DHT22;14507;52.418;13.398;2023-05-10T11:51:14;22.60;67.80
26952;DHT22;14507;52.418;13.398;2023-05-10T11:53:41;22.70;66.70
26952;DHT22;14507;52.418;13.398;2023-05-10T11:56:08;22.90;67.00
26952;DHT22;14507;52.418;13.398;2023-05-10T11:58:36;23.00;65.10
26952;DHT22;14507;52.418;13.398;2023-05-10T12:01:02;23.20;67.30
26952;DHT22;14507;52.418;13.398;2023-05-10T12:03:29;23.10;65.30
26952;DHT22;14507;52.418;13.398;2023-05-10T12:05:56;23.10;66.40
26952;DHT22;14507;52.418;13.398;2023-05-10T12:08:23;23.20;65.00
26952;DHT22;14507;52.418;13.398;2023-05-10T12:10:49;23.30;65.80
26952;DHT22;14507;52.418;13.398;2023-05-10T12:13:15;23.40;65.50
26952;DHT22;14507;52.418;13.398;2023-05-10T12:15:42;23.60;65.50
26952;DHT22;14507;52.418;13.398;2023-05-10T12:18:14;23.60;64.00
26952;DHT22;14507;52.418;13.398;2023-05-10T12:20:40;23.70;65.40
26952;DHT22;14507;52.418;13.398;2023-05-10T12:23:08;23.70;63.10
26952;DHT22;14507;52.418;13.398;2023-05-10T12:25:36;23.70;65.30
26952;DHT22;14507;52.418;13.398;2023-05-10T12:28:07;23.70;63.80
26952;DHT22;14507;52.418;13.398;2023-05-10T12:30:34;23.80;64.10
26952;DHT22;14507;52.418;13.398;2023-05-10T12:33:11;23.80;64.50
26952;DHT22;14507;52.418;13.398;2023-05-10T12:35:49;23.70;63.50
26952;DHT22;14507;52.418;13.398;2023-05-10T12:38:35;23.60;64.30
26952;DHT22;14507;52.418;13.398;2023-05-10T12:41:04;23.70;64.60
26952;DHT22;14507;52.418;13.398;2023-05-10T12:43:31;23.80;63.30
26952;DHT22;14507;52.418;13.398;2023-05-10T12:45:57;24.00;62.30
26952;DHT22;14507;52.418;13.398;2023-05-10T12:48:23;23.80;62.60
26952;DHT22;14507;52.418;13.398;2023-05-10T12:50:48;23.50;64.30
26952;DHT22;14507;52.418;13.398;2023-05-10T12:53:15;23.50;63.90
26952;DHT22;14507;52.418;13.398;2023-05-10T12:55:42;23.50;65.90
26952;DHT22;14507;52.418;13.398;2023-05-10T12:58:07;23.60;63.10
26952;DHT22;14507;52.418;13.398;2023-05-10T13:00:33;23.60;62.70
26952;DHT22;14507;52.418;13.398;2023-05-10T13:02:59;23.50;63.30
26952;DHT22;14507;52.418;13.398;2023-05-10T13:05:24;23.50;63.90
26952;DHT22;14507;52.418;13.398;2023-05-10T13:07:50;23.60;63.70
26952;DHT22;14507;52.418;13.398;2023-05-10T13:10:16;23.60;63.80
26952;DHT22;14507;52.418;13.398;2023-05-10T13:12:42;23.70;63.40
26952;DHT22;14507;52.418;13.398;2023-05-10T13:15:08;23.70;64.20
26952;DHT22;14507;52.418;13.398;2023-05-10T13:17:33;23.70;63.00
26952;DHT22;14507;52.418;13.398;2023-05-10T13:19:59;23.60;62.60
26952;DHT22;14507;52.418;13.398;2023-05-10T13:22:25;23.60;61.90
26952;DHT22;14507;52.418;13.398;2023-05-10T13:24:50;23.50;62.10
26952;DHT22;14507;52.418;13.398;2023-05-10T13:27:16;23.50;62.00
26952;DHT22;14507;52.418;13.398;2023-05-10T13:29:42;23.40;62.80
26952;DHT22;14507;52.418;13.398;2023-05-10T13:32:07;23.30;62.40
26952;DHT22;14507;52.418;13.398;2023-05-10T13:34:33;23.30;63.40
26952;DHT22;14507;52.418;13.398;2023-05-10T13:37:01;23.20;63.00
26952;DHT22;14507;52.418;13.398;2023-05-10T13:39:26;23.30;64.90
26952;DHT22;14507;52.418;13.398;2023-05-10T13:41:52;23.30;63.50
26952;DHT22;14507;52.418;13.398;2023-05-10T13:44:19;23.50;62.00
26952;DHT22;14507;52.418;13.398;2023-05-10T13:46:45;23.50;61.20
26952;DHT22;14507;52.418;13.398;2023-05-10T13:49:11;23.50;63.60
26952;DHT22;14507;52.418;13.398;2023-05-10T13:51:37;23.60;62.10
26952;DHT22;14507;52.418;13.398;2023-05-10T13:54:03;23.60;62.90
26952;DHT22;14507;52.418;13.398;2023-05-10T13:56:28;23.60;60.40
26952;DHT22;14507;52.418;13.398;2023-05-10T13:58:55;23.60;62.40
26952;DHT22;14507;52.418;13.398;2023-05-10T14:01:21;23.70;60.70
26952;DHT22;14507;52.418;13.398;2023-05-10T14:03:47;23.70;60.80
26952;DHT22;14507;52.418;13.398;2023-05-10T14:06:13;23.50;60.50
26952;DHT22;14507;52.418;13.398;2023-05-10T14:08:39;23.50;60.90
26952;DHT22;14507;52.418;13.398;2023-05-10T14:11:04;23.50;62.10
26952;DHT22;14507;52.418;13.398;2023-05-10T14:13:30;23.50;61.40
26952;DHT22;14507;52.418;13.398;2023-05-10T14:15:56;23.50;61.00
26952;DHT22;14507;52.418;13.398;2023-05-10T14:18:22;23.40;60.90
26952;DHT22;14507;52.418;13.398;2023-05-10T14:20:47;23.40;61.20
26952;DHT22;14507;52.418;13.398;2023-05-10T14:23:13;23.40;62.30
26952;DHT22;14507;52.418;13.398;2023-05-10T14:25:41;23.50;62.00
26952;DHT22;14507;52.418;13.398;2023-05-10T14:28:07;23.50;61.80
26952;DHT22;14507;52.418;13.398;2023-05-10T14:30:33;23.60;61.90
26952;DHT22;14507;52.418;13.398;2023-05-10T14:33:02;23.50;61.80
26952;DHT22;14507;52.418;13.398;2023-05-10T14:35:28;23.50;61.90
26952;DHT22;14507;52.418;13.398;2023-05-10T14:37:56;23.50;61.50
26952;DHT22;14507;52.418;13.398;2023-05-10T14:40:22;23.50;61.60
26952;DHT22;14507;52.418;13.398;2023-05-10T14:42:49;23.60;62.10
26952;DHT22;14507;52.418;13.398;2023-05-10T14:45:15;23.60;61.60
26952;DHT22;14507;52.418;13.398;2023-05-10T14:47:41;23.50;60.70
26952;DHT22;14507;52.418;13.398;2023-05-10T14:50:07;23.40;61.50
26952;DHT22;14507;52.418;13.398;2023-05-10T14:52:32;23.40;61.40
26952;DHT22;14507;52.418;13.398;2023-05-10T14:54:58;23.40;61.70
26952;DHT22;14507;52.418;13.398;2023-05-10T14:57:25;23.40;62.30
26952;DHT22;14507;52.418;13.398;2023-05-10T14:59:51;23.50;62.50
26952;DHT22;14507;52.418;13.398;2023-05-10T15:02:16;23.50;62.30
26952;DHT22;14507;52.418;13.398;2023-05-10T15:04:42;23.50;61.80
26952;DHT22;14507;52.418;13.398;2023-05-10T15:07:08;23.50;61.50
26952;DHT22;14507;52.418;13.398;2023-05-10T15:09:33;23.40;62.20
26952;DHT22;14507;52.418;13.398;2023-05-10T15:11:59;23.40;62.60
26952;DHT22;14507;52.418;13.398;2023-05-10T15:14:25;23.30;61.60
26952;DHT22;14507;52.418;13.398;2023-05-10T15:16:50;23.20;61.80
26952;DHT22;14507;52.418;13.398;2023-05-10T15:19:16;23.20;61.90
26952;DHT22;14507;52.418;13.398;2023-05-10T15:21:41;23.20;62.90
26952;DHT22;14507;52.418;13.398;2023-05-10T15:24:09;23.30;62.70
26952;DHT22;14507;52.418;13.398;2023-05-10T15:26:35;23.30;62.30
26952;DHT22;14507;52.418;13.398;2023-05-10T15:29:00;23.40;63.10
26952;DHT22;14507;52.418;13.398;2023-05-10T15:31:26;23.50;63.40
26952;DHT22;14507;52.418;13.398;2023-05-10T15:33:57;23.40;62.50
26952;DHT22;14507;52.418;13.398;2023-05-10T15:36:22;23.50;62.20
26952;DHT22;14507;52.418;13.398;2023-05-10T15:38:48;23.50;62.20
26952;DHT22;14507;52.418;13.398;2023-05-10T15:41:13;23.40;63.00
26952;DHT22;14507;52.418;13.398;2023-05-10T15:43:39;23.30;63.10
26952;DHT22;14507;52.418;13.398;2023-05-10T15:46:05;23.20;63.60
26952;DHT22;14507;52.418;13.398;2023-05-10T15:48:31;23.10;63.90
26952;DHT22;14507;52.418;13.398;2023-05-10T15:50:57;23.00;65.70
26952;DHT22;14507;52.418;13.398;2023-05-10T15:53:22;23.00;65.70
26952;DHT22;14507;52.418;13.398;2023-05-10T15:55:48;23.00;64.70